Vemaoil Xxiii — 9HXU9 — position and weather

sailwx.info

Track history (hours):
 
Tides and Currents Weather Stations Pressure Air Temp Water Temp Dewpoint Dewpoint Depression Visibility Wind Speed Wind Dir Waves Ship Positions

Vemaoil Xxiii

Last reported at 2018-Aug-19 15:00 UTC. Time now 2018-Aug-19 15:18 UTC.
Position N 05°21' E 000°04'.

Length 110 m; draft 4.2 m.

Type: Tanker. MMSI: 249677000.

Date/timePositionNaut miles runAvg speedWind from/ knotsBaromVisibWave heightAir tempDewpointWater temp
2018-Aug-19 15:00N 05°21' E 000°04'1 2.0
2018-Aug-19 14:30N 05°20' E 000°04'1 1.9
2018-Aug-19 14:01N 05°19' E 000°03'1 1.9
2018-Aug-19 13:31N 05°19' E 000°02'1 1.8
2018-Aug-19 13:00N 05°18' E 000°02'1 1.8
2018-Aug-19 12:30N 05°18' E 000°01'2 3.4
2018-Aug-19 12:00N 05°19' E 000°02'4 7.7
2018-Aug-19 11:30N 05°20' E 000°06'4 7.6
2018-Aug-19 11:01N 05°21' E 000°09'3 6.4
2018-Aug-19 10:30N 05°23' E 000°12'1 1.4
2018-Aug-19 10:00N 05°22' E 000°12'1 1.4
2018-Aug-19 09:30N 05°22' E 000°11'1 1.5
2018-Aug-19 09:00N 05°21' E 000°10'1 1.6
2018-Aug-19 08:30N 05°21' E 000°10'1 1.6
2018-Aug-19 08:00N 05°21' E 000°09'1 1.6
2018-Aug-19 07:28N 05°20' E 000°08'1 1.7
2018-Aug-19 07:01N 05°20' E 000°08'1 1.8
2018-Aug-19 06:30N 05°19' E 000°07'1 1.9
2018-Aug-19 05:58N 05°19' E 000°06'1 1.8
2018-Aug-19 05:30N 05°19' E 000°05'1 1.8
2018-Aug-19 05:00N 05°18' E 000°04'1 1.9
2018-Aug-19 04:30N 05°18' E 000°03'1 1.9
2018-Aug-19 04:01N 05°17' E 000°03'0 0.4
2018-Aug-19 03:30N 05°17' E 000°03'3 7.0
2018-Aug-19 03:00N 05°18' E 000°06'4 7.0
2018-Aug-19 02:29N 05°21' E 000°08'2 4.8
2018-Aug-19 02:00N 05°23' E 000°07'1 1.5
2018-Aug-19 01:28N 05°23' E 000°06'1 1.5
2018-Aug-19 00:59N 05°22' E 000°06'1 1.6
2018-Aug-19 00:27N 05°22' E 000°05'1 1.5
2018-Aug-19 00:00N 05°21' E 000°05'1 1.5
2018-Aug-18 23:29N 05°21' E 000°04'1 1.5
2018-Aug-18 23:01N 05°20' E 000°04'1 1.5
2018-Aug-18 22:31N 05°20' E 000°03'1 1.5
2018-Aug-18 22:00N 05°19' E 000°03'1 1.6
2018-Aug-18 21:30N 05°18' E 000°02'0 0.6
2018-Aug-18 21:00N 05°18' E 000°02'4 7.5
2018-Aug-18 20:31N 05°21' E 000°04'3 5.4
2018-Aug-18 20:01N 05°23' E 000°06'1 1.7
2018-Aug-18 19:30N 05°23' E 000°06'1 1.7
2018-Aug-18 19:01N 05°22' E 000°05'1 1.7
2018-Aug-18 18:31N 05°21' E 000°05'1 1.7
2018-Aug-18 17:57N 05°20' E 000°04'1 1.8
2018-Aug-18 17:30N 05°20' E 000°03'1 1.7
2018-Aug-18 17:00N 05°19' E 000°03'1 1.7
2018-Aug-18 16:30N 05°18' E 000°03'1 1.7
2018-Aug-18 16:00N 05°18' E 000°02'1 3.0
2018-Aug-18 15:31N 05°19' E 000°03'3 6.8
2018-Aug-18 15:01N 05°22' E 000°05'2 3.8
2018-Aug-18 14:31N 05°23' E 000°06'1 1.7
2018-Aug-18 14:01N 05°22' E 000°06'1 1.6
2018-Aug-18 13:30N 05°22' E 000°05'1 1.5
2018-Aug-18 13:01N 05°21' E 000°05'1 1.5
2018-Aug-18 12:30N 05°21' E 000°04'1 1.5
2018-Aug-18 12:00N 05°20' E 000°04'1 1.5
2018-Aug-18 11:27N 05°19' E 000°03'0 0.9
2018-Aug-18 11:00N 05°19' E 000°03'4 7.2
2018-Aug-18 10:28N 05°21' E 000°06'1 2.1
2018-Aug-18 09:59N 05°22' E 000°07'1 1.2
2018-Aug-18 09:31N 05°22' E 000°06'1 1.3
2018-Aug-18 08:57N 05°21' E 000°06'1 1.3
2018-Aug-18 08:30N 05°21' E 000°06'1 1.1
2018-Aug-18 08:00N 05°20' E 000°05'1 1.2
2018-Aug-18 07:30N 05°20' E 000°05'1 1.2
2018-Aug-18 07:01N 05°19' E 000°04'1 1.2
2018-Aug-18 06:30N 05°19' E 000°04'1 1.2
2018-Aug-18 06:00N 05°19' E 000°03'1 1.9
2018-Aug-18 05:30N 05°18' E 000°04'5 9.8
2018-Aug-18 05:01N 05°13' E 000°04'510.3
2018-Aug-18 04:29N 05°07' E 000°04'  
Track history (hours):
 
Tides and Currents Weather Stations Pressure Air Temp Water Temp Dewpoint Dewpoint Depression Visibility Wind Speed Wind Dir Waves Ship Positions

Vemaoil Xxiii

Last reported at 2018-Aug-19 15:00 UTC. Time now 2018-Aug-19 15:18 UTC.
Position N 05°21' E 000°04'.

Length 110 m; draft 4.2 m.

Type: Tanker. MMSI: 249677000.

Date/timePositionNaut miles runAvg speedWind from/ knotsBaromVisibWave heightAir tempDewpointWater temp
2018-Aug-19 15:00N 05°21' E 000°04'1 2.0
2018-Aug-19 14:30N 05°20' E 000°04'1 1.9
2018-Aug-19 14:01N 05°19' E 000°03'1 1.9
2018-Aug-19 13:31N 05°19' E 000°02'1 1.8
2018-Aug-19 13:00N 05°18' E 000°02'1 1.8
2018-Aug-19 12:30N 05°18' E 000°01'2 3.4
2018-Aug-19 12:00N 05°19' E 000°02'4 7.7
2018-Aug-19 11:30N 05°20' E 000°06'4 7.6
2018-Aug-19 11:01N 05°21' E 000°09'3 6.4
2018-Aug-19 10:30N 05°23' E 000°12'1 1.4
2018-Aug-19 10:00N 05°22' E 000°12'1 1.4
2018-Aug-19 09:30N 05°22' E 000°11'1 1.5
2018-Aug-19 09:00N 05°21' E 000°10'1 1.6
2018-Aug-19 08:30N 05°21' E 000°10'1 1.6
2018-Aug-19 08:00N 05°21' E 000°09'1 1.6
2018-Aug-19 07:28N 05°20' E 000°08'1 1.7
2018-Aug-19 07:01N 05°20' E 000°08'1 1.8
2018-Aug-19 06:30N 05°19' E 000°07'1 1.9
2018-Aug-19 05:58N 05°19' E 000°06'1 1.8
2018-Aug-19 05:30N 05°19' E 000°05'1 1.8
2018-Aug-19 05:00N 05°18' E 000°04'1 1.9
2018-Aug-19 04:30N 05°18' E 000°03'1 1.9
2018-Aug-19 04:01N 05°17' E 000°03'0 0.4
2018-Aug-19 03:30N 05°17' E 000°03'3 7.0
2018-Aug-19 03:00N 05°18' E 000°06'4 7.0
2018-Aug-19 02:29N 05°21' E 000°08'2 4.8
2018-Aug-19 02:00N 05°23' E 000°07'1 1.5
2018-Aug-19 01:28N 05°23' E 000°06'1 1.5
2018-Aug-19 00:59N 05°22' E 000°06'1 1.6
2018-Aug-19 00:27N 05°22' E 000°05'1 1.5
2018-Aug-19 00:00N 05°21' E 000°05'1 1.5
2018-Aug-18 23:29N 05°21' E 000°04'1 1.5
2018-Aug-18 23:01N 05°20' E 000°04'1 1.5
2018-Aug-18 22:31N 05°20' E 000°03'1 1.5
2018-Aug-18 22:00N 05°19' E 000°03'1 1.6
2018-Aug-18 21:30N 05°18' E 000°02'0 0.6
2018-Aug-18 21:00N 05°18' E 000°02'4 7.5
2018-Aug-18 20:31N 05°21' E 000°04'3 5.4
2018-Aug-18 20:01N 05°23' E 000°06'1 1.7
2018-Aug-18 19:30N 05°23' E 000°06'1 1.7
2018-Aug-18 19:01N 05°22' E 000°05'1 1.7
2018-Aug-18 18:31N 05°21' E 000°05'1 1.7
2018-Aug-18 17:57N 05°20' E 000°04'1 1.8
2018-Aug-18 17:30N 05°20' E 000°03'1 1.7
2018-Aug-18 17:00N 05°19' E 000°03'1 1.7
2018-Aug-18 16:30N 05°18' E 000°03'1 1.7
2018-Aug-18 16:00N 05°18' E 000°02'1 3.0
2018-Aug-18 15:31N 05°19' E 000°03'3 6.8
2018-Aug-18 15:01N 05°22' E 000°05'2 3.8
2018-Aug-18 14:31N 05°23' E 000°06'1 1.7
2018-Aug-18 14:01N 05°22' E 000°06'1 1.6
2018-Aug-18 13:30N 05°22' E 000°05'1 1.5
2018-Aug-18 13:01N 05°21' E 000°05'1 1.5
2018-Aug-18 12:30N 05°21' E 000°04'1 1.5
2018-Aug-18 12:00N 05°20' E 000°04'1 1.5
2018-Aug-18 11:27N 05°19' E 000°03'0 0.9
2018-Aug-18 11:00N 05°19' E 000°03'4 7.2
2018-Aug-18 10:28N 05°21' E 000°06'1 2.1
2018-Aug-18 09:59N 05°22' E 000°07'1 1.2
2018-Aug-18 09:31N 05°22' E 000°06'1 1.3
2018-Aug-18 08:57N 05°21' E 000°06'1 1.3
2018-Aug-18 08:30N 05°21' E 000°06'1 1.1
2018-Aug-18 08:00N 05°20' E 000°05'1 1.2
2018-Aug-18 07:30N 05°20' E 000°05'1 1.2
2018-Aug-18 07:01N 05°19' E 000°04'1 1.2
2018-Aug-18 06:30N 05°19' E 000°04'1 1.2
2018-Aug-18 06:00N 05°19' E 000°03'1 1.9
2018-Aug-18 05:30N 05°18' E 000°04'5 9.8
2018-Aug-18 05:01N 05°13' E 000°04'510.3
2018-Aug-18 04:29N 05°07' E 000°04'  

Dump ship's entire track history